Welcome to BabcockFarms new weather site...

Visit our other weather sites:

Template documentation
and downloads

And another site



There are no active watches, warnings or advisories

Nearby METAR Reports

   
KAVP - Albrightsville, PA
Updated: Apr 24 2018 10:54 pm
Light Rain, Mist, Overcast  
Light Rain, Mist, Overcast  
   Wind: ENE 6.9 mph
Wind: ENE 6.9 mph
Temperature: 50°F
Wind Chill: 46.4°F
Dew Point: 46.4°F
Humidity: 88%
Barometer: 30.09 inHg
Clouds: Overcast
Visibility: 5 mi
Cloud details: Overcast 1829 m
KAVP 250354Z 07006KT 5SM -RA BR OVC060 10/08 A3009 RMK AO2 SLP189 P0003 T01000083
KIWA - Apache Junction, AZ
Updated: Apr 24 2018 10:55 pm
Partly Cloudy  
Partly Cloudy  
   Wind: Calm
Wind: Calm
Temperature: 84.2°F
Dew Point: 24.8°F
Humidity: 11%
Barometer: 29.9 inHg
Clouds: Partly Cloudy
Visibility: 20 mi
Cloud details: Partly Cloudy 4572 m
KIWA 250355Z 00000KT 20SM SCT150 29/M04 A2990
KPKB - Blue Rock, OH
Updated: Apr 24 2018 10:53 pm
Overcast  
Overcast  
   Wind: Calm
Wind: Calm
Temperature: 51.8°F
Dew Point: 51.8°F
Humidity: 100%
Barometer: 29.9 inHg
Clouds: Overcast
Visibility: 9 mi
Cloud details: Overcast 1524 m
KPKB 250353Z AUTO 00000KT 9SM OVC050 11/11 A2990 RMK AO2 SLP123 T01110106
KHVN - Branford, CT
Updated: Apr 24 2018 10:53 pm
Overcast  
Overcast  
   Wind: East 8.1 mph
Wind: East 8.1 mph
Temperature: 53.6°F
Dew Point: 42.8°F
Humidity: 67%
Barometer: 30.2 inHg
Clouds: Overcast
Visibility: 10 mi
Cloud details: Overcast 1981 m
KHVN 250353Z AUTO 09007KT 10SM OVC065 12/06 A3020 RMK AO2 SLP226 T01220056
KPHX - Carefree, AZ
Updated: Apr 24 2018 10:51 pm
Mostly Cloudy  
Mostly Cloudy  
   Wind: SW 4.6 mph
Wind: SW 4.6 mph
Temperature: 86°F
Dew Point: 26.6°F
Humidity: 11%
Barometer: 29.85 inHg
Clouds: Mostly Cloudy
Visibility: 10 mi
Cloud details: Mostly Cloudy 7620 m
KPHX 250351Z 22004KT 10SM BKN250 30/M03 A2985 RMK AO2 SLP091 T03001033
 

Script developed by  Saratoga-weather.org Adapted for the template by  Weerstation Leuven